Terminal Aerodrome Forecast
Issued by NWS

Home | Current Version | Previous Version | Text Only | Print | Product List | Glossary On
Versions: 1 2 3 4 5 6 7 8 9 10 11 12 13 14 15 16 17 18 19 20 21
000
FTUS41 KRLX 300500
TAFCKB
TAF
KCKB 300531Z 3006/3106 26010G17KT 5SM -SHRA BKN045 OVC060
     FM300700 22009KT 6SM -SHRA OVC022
     FM301100 24008KT P6SM OVC022
     FM301300 26009KT P6SM BKN022
     FM301500 26010G15KT P6SM BKN024
     FM301700 26011G16KT P6SM SCT035
     FM310000 27008KT P6SM SCT200=

USA.gov is the U.S. government's official web portal to all federal, state and local government web resources and services.